sensor_id;sensor_type;location;lat;lon;timestamp;temperature;humidity
14349;DHT22;7258;50.376;8.742;2023-10-08T00:00:44;14.90;99.90
14349;DHT22;7258;50.376;8.742;2023-10-08T00:02:49;14.80;99.90
14349;DHT22;7258;50.376;8.742;2023-10-08T00:04:53;14.90;99.90
14349;DHT22;7258;50.376;8.742;2023-10-08T00:06:56;14.90;99.90
14349;DHT22;7258;50.376;8.742;2023-10-08T00:08:58;14.80;99.90
14349;DHT22;7258;50.376;8.742;2023-10-08T00:11:02;14.90;99.90
14349;DHT22;7258;50.376;8.742;2023-10-08T00:13:09;14.80;99.90
14349;DHT22;7258;50.376;8.742;2023-10-08T00:15:12;14.80;99.90
14349;DHT22;7258;50.376;8.742;2023-10-08T00:17:16;14.90;99.90
14349;DHT22;7258;50.376;8.742;2023-10-08T00:19:20;14.90;99.90
14349;DHT22;7258;50.376;8.742;2023-10-08T00:21:23;14.80;99.90
14349;DHT22;7258;50.376;8.742;2023-10-08T00:23:28;14.90;99.90
14349;DHT22;7258;50.376;8.742;2023-10-08T00:25:32;14.90;99.90
14349;DHT22;7258;50.376;8.742;2023-10-08T00:27:35;14.90;99.90
14349;DHT22;7258;50.376;8.742;2023-10-08T00:29:42;14.90;99.90
14349;DHT22;7258;50.376;8.742;2023-10-08T00:31:45;14.80;99.90
14349;DHT22;7258;50.376;8.742;2023-10-08T00:33:49;14.90;99.90
14349;DHT22;7258;50.376;8.742;2023-10-08T00:35:51;15.00;99.90
14349;DHT22;7258;50.376;8.742;2023-10-08T00:37:54;15.00;99.90
14349;DHT22;7258;50.376;8.742;2023-10-08T00:40:02;15.00;99.90
14349;DHT22;7258;50.376;8.742;2023-10-08T00:42:13;15.10;99.90
14349;DHT22;7258;50.376;8.742;2023-10-08T00:44:16;15.10;99.90
14349;DHT22;7258;50.376;8.742;2023-10-08T00:46:25;15.20;99.90
14349;DHT22;7258;50.376;8.742;2023-10-08T00:48:33;15.20;99.90
14349;DHT22;7258;50.376;8.742;2023-10-08T00:50:38;15.10;99.90
14349;DHT22;7258;50.376;8.742;2023-10-08T00:52:45;15.00;99.90
14349;DHT22;7258;50.376;8.742;2023-10-08T00:54:59;14.90;99.90
14349;DHT22;7258;50.376;8.742;2023-10-08T00:57:10;14.90;99.90
14349;DHT22;7258;50.376;8.742;2023-10-08T00:59:15;14.80;99.90
14349;DHT22;7258;50.376;8.742;2023-10-08T01:01:22;14.80;99.90
14349;DHT22;7258;50.376;8.742;2023-10-08T01:03:27;14.80;99.90
14349;DHT22;7258;50.376;8.742;2023-10-08T01:05:30;14.70;99.90
14349;DHT22;7258;50.376;8.742;2023-10-08T01:07:48;14.70;99.90
14349;DHT22;7258;50.376;8.742;2023-10-08T01:09:53;14.60;99.90
14349;DHT22;7258;50.376;8.742;2023-10-08T01:12:08;14.60;99.90
14349;DHT22;7258;50.376;8.742;2023-10-08T01:14:10;14.50;99.90
14349;DHT22;7258;50.376;8.742;2023-10-08T01:16:14;14.50;99.90
14349;DHT22;7258;50.376;8.742;2023-10-08T01:18:16;14.50;99.90
14349;DHT22;7258;50.376;8.742;2023-10-08T01:20:28;14.50;99.90
14349;DHT22;7258;50.376;8.742;2023-10-08T01:22:40;14.40;99.90
14349;DHT22;7258;50.376;8.742;2023-10-08T01:24:47;14.40;99.90
14349;DHT22;7258;50.376;8.742;2023-10-08T01:26:51;14.40;99.90
14349;DHT22;7258;50.376;8.742;2023-10-08T01:28:53;14.30;99.90
14349;DHT22;7258;50.376;8.742;2023-10-08T01:30:57;14.30;99.90
14349;DHT22;7258;50.376;8.742;2023-10-08T01:33:02;14.30;99.90
14349;DHT22;7258;50.376;8.742;2023-10-08T01:35:06;14.30;99.90
14349;DHT22;7258;50.376;8.742;2023-10-08T01:37:23;14.30;99.90
14349;DHT22;7258;50.376;8.742;2023-10-08T01:39:27;14.30;99.90
14349;DHT22;7258;50.376;8.742;2023-10-08T01:41:29;14.40;99.90
14349;DHT22;7258;50.376;8.742;2023-10-08T01:43:32;14.40;99.90
14349;DHT22;7258;50.376;8.742;2023-10-08T01:45:36;14.40;99.90
14349;DHT22;7258;50.376;8.742;2023-10-08T01:47:42;14.40;99.90
14349;DHT22;7258;50.376;8.742;2023-10-08T01:49:46;14.40;99.90
14349;DHT22;7258;50.376;8.742;2023-10-08T01:51:48;14.40;99.90
14349;DHT22;7258;50.376;8.742;2023-10-08T01:53:54;14.40;99.90
14349;DHT22;7258;50.376;8.742;2023-10-08T01:55:58;14.40;99.90
14349;DHT22;7258;50.376;8.742;2023-10-08T01:58:03;14.50;99.90
14349;DHT22;7258;50.376;8.742;2023-10-08T02:00:07;14.50;99.90
14349;DHT22;7258;50.376;8.742;2023-10-08T02:02:11;14.60;99.90
14349;DHT22;7258;50.376;8.742;2023-10-08T02:04:16;14.60;99.90
14349;DHT22;7258;50.376;8.742;2023-10-08T02:06:19;14.70;99.90
14349;DHT22;7258;50.376;8.742;2023-10-08T02:08:22;14.90;99.90
14349;DHT22;7258;50.376;8.742;2023-10-08T02:10:25;15.40;99.90
14349;DHT22;7258;50.376;8.742;2023-10-08T02:12:30;15.60;99.90
14349;DHT22;7258;50.376;8.742;2023-10-08T02:14:33;15.80;99.90
14349;DHT22;7258;50.376;8.742;2023-10-08T02:16:37;16.00;99.90
14349;DHT22;7258;50.376;8.742;2023-10-08T02:18:40;16.00;99.90
14349;DHT22;7258;50.376;8.742;2023-10-08T02:20:43;16.10;99.90
14349;DHT22;7258;50.376;8.742;2023-10-08T02:22:46;16.10;99.90
14349;DHT22;7258;50.376;8.742;2023-10-08T02:24:50;16.10;99.90
14349;DHT22;7258;50.376;8.742;2023-10-08T02:26:55;16.10;99.90
14349;DHT22;7258;50.376;8.742;2023-10-08T02:29:00;16.10;99.90
14349;DHT22;7258;50.376;8.742;2023-10-08T02:31:02;16.10;99.90
14349;DHT22;7258;50.376;8.742;2023-10-08T02:33:05;16.20;99.90
14349;DHT22;7258;50.376;8.742;2023-10-08T02:35:16;16.30;99.90
14349;DHT22;7258;50.376;8.742;2023-10-08T02:37:18;16.30;99.90
14349;DHT22;7258;50.376;8.742;2023-10-08T02:39:21;16.40;99.90
14349;DHT22;7258;50.376;8.742;2023-10-08T02:41:27;16.40;99.90
14349;DHT22;7258;50.376;8.742;2023-10-08T02:43:30;16.50;99.90
14349;DHT22;7258;50.376;8.742;2023-10-08T02:45:34;16.60;99.90
14349;DHT22;7258;50.376;8.742;2023-10-08T02:47:41;16.70;99.90
14349;DHT22;7258;50.376;8.742;2023-10-08T02:49:46;16.70;99.90
14349;DHT22;7258;50.376;8.742;2023-10-08T02:51:51;16.70;99.90
14349;DHT22;7258;50.376;8.742;2023-10-08T02:53:54;16.80;99.90
14349;DHT22;7258;50.376;8.742;2023-10-08T02:55:56;16.80;99.90
14349;DHT22;7258;50.376;8.742;2023-10-08T02:57:58;16.80;99.90
14349;DHT22;7258;50.376;8.742;2023-10-08T03:00:04;16.80;99.90
14349;DHT22;7258;50.376;8.742;2023-10-08T03:02:15;16.80;99.90
14349;DHT22;7258;50.376;8.742;2023-10-08T03:04:21;16.80;99.90
14349;DHT22;7258;50.376;8.742;2023-10-08T03:06:24;16.70;99.90
14349;DHT22;7258;50.376;8.742;2023-10-08T03:08:27;16.70;99.90
14349;DHT22;7258;50.376;8.742;2023-10-08T03:10:32;16.70;99.90
14349;DHT22;7258;50.376;8.742;2023-10-08T03:12:36;16.70;99.90
14349;DHT22;7258;50.376;8.742;2023-10-08T03:14:37;16.70;99.90
14349;DHT22;7258;50.376;8.742;2023-10-08T03:16:53;16.70;99.90
14349;DHT22;7258;50.376;8.742;2023-10-08T03:19:10;16.70;99.90
14349;DHT22;7258;50.376;8.742;2023-10-08T03:21:13;16.60;99.90
14349;DHT22;7258;50.376;8.742;2023-10-08T03:23:26;16.60;99.90
14349;DHT22;7258;50.376;8.742;2023-10-08T03:25:36;16.50;99.90
14349;DHT22;7258;50.376;8.742;2023-10-08T03:27:43;16.40;99.90
14349;DHT22;7258;50.376;8.742;2023-10-08T03:29:46;16.40;99.90
14349;DHT22;7258;50.376;8.742;2023-10-08T03:31:49;16.40;99.90
14349;DHT22;7258;50.376;8.742;2023-10-08T03:33:52;16.30;99.90
14349;DHT22;7258;50.376;8.742;2023-10-08T03:35:56;16.20;99.90
14349;DHT22;7258;50.376;8.742;2023-10-08T03:37:59;16.20;99.90
14349;DHT22;7258;50.376;8.742;2023-10-08T03:40:21;16.00;99.90
14349;DHT22;7258;50.376;8.742;2023-10-08T03:42:33;15.80;99.90
14349;DHT22;7258;50.376;8.742;2023-10-08T03:44:41;15.70;99.90
14349;DHT22;7258;50.376;8.742;2023-10-08T03:46:44;15.50;99.90
14349;DHT22;7258;50.376;8.742;2023-10-08T03:48:49;15.40;99.90
14349;DHT22;7258;50.376;8.742;2023-10-08T03:50:53;15.30;99.90
14349;DHT22;7258;50.376;8.742;2023-10-08T03:53:10;15.20;99.90
14349;DHT22;7258;50.376;8.742;2023-10-08T03:55:13;15.10;99.90
14349;DHT22;7258;50.376;8.742;2023-10-08T03:57:23;15.00;99.90
14349;DHT22;7258;50.376;8.742;2023-10-08T03:59:42;15.00;99.90
14349;DHT22;7258;50.376;8.742;2023-10-08T04:01:49;14.90;99.90
14349;DHT22;7258;50.376;8.742;2023-10-08T04:03:56;14.80;99.90
14349;DHT22;7258;50.376;8.742;2023-10-08T04:06:02;14.70;99.90
14349;DHT22;7258;50.376;8.742;2023-10-08T04:08:17;14.70;99.90
14349;DHT22;7258;50.376;8.742;2023-10-08T04:10:27;14.70;99.90
14349;DHT22;7258;50.376;8.742;2023-10-08T04:13:09;14.60;99.90
14349;DHT22;7258;50.376;8.742;2023-10-08T04:15:18;14.60;99.90
14349;DHT22;7258;50.376;8.742;2023-10-08T04:17:21;14.50;99.90
14349;DHT22;7258;50.376;8.742;2023-10-08T04:19:24;14.40;99.90
14349;DHT22;7258;50.376;8.742;2023-10-08T04:21:29;14.40;99.90
14349;DHT22;7258;50.376;8.742;2023-10-08T04:23:36;14.40;99.90
14349;DHT22;7258;50.376;8.742;2023-10-08T04:25:38;14.30;99.90
14349;DHT22;7258;50.376;8.742;2023-10-08T04:27:41;14.30;99.90
14349;DHT22;7258;50.376;8.742;2023-10-08T04:29:44;14.30;99.90
14349;DHT22;7258;50.376;8.742;2023-10-08T04:31:51;14.20;99.90
14349;DHT22;7258;50.376;8.742;2023-10-08T04:34:03;14.20;99.90
14349;DHT22;7258;50.376;8.742;2023-10-08T04:36:11;14.10;99.90
14349;DHT22;7258;50.376;8.742;2023-10-08T04:38:20;14.10;99.90
14349;DHT22;7258;50.376;8.742;2023-10-08T04:40:25;14.10;99.90
14349;DHT22;7258;50.376;8.742;2023-10-08T04:42:34;14.10;99.90
14349;DHT22;7258;50.376;8.742;2023-10-08T04:44:41;14.10;99.90
14349;DHT22;7258;50.376;8.742;2023-10-08T04:46:44;14.00;99.90
14349;DHT22;7258;50.376;8.742;2023-10-08T04:48:53;14.00;99.90
14349;DHT22;7258;50.376;8.742;2023-10-08T04:50:57;14.00;99.90
14349;DHT22;7258;50.376;8.742;2023-10-08T04:53:04;14.10;99.90
14349;DHT22;7258;50.376;8.742;2023-10-08T04:55:10;14.20;99.90
14349;DHT22;7258;50.376;8.742;2023-10-08T04:57:21;14.20;99.90
14349;DHT22;7258;50.376;8.742;2023-10-08T04:59:28;14.30;99.90
14349;DHT22;7258;50.376;8.742;2023-10-08T05:01:35;14.40;99.90
14349;DHT22;7258;50.376;8.742;2023-10-08T05:03:50;14.50;99.90
14349;DHT22;7258;50.376;8.742;2023-10-08T05:06:28;14.50;99.90
14349;DHT22;7258;50.376;8.742;2023-10-08T05:08:51;14.50;99.90
14349;DHT22;7258;50.376;8.742;2023-10-08T05:11:00;14.50;99.90
14349;DHT22;7258;50.376;8.742;2023-10-08T05:13:28;14.50;99.90
14349;DHT22;7258;50.376;8.742;2023-10-08T05:15:34;14.50;99.90
14349;DHT22;7258;50.376;8.742;2023-10-08T05:17:44;14.40;99.90
14349;DHT22;7258;50.376;8.742;2023-10-08T05:19:59;14.40;99.90
14349;DHT22;7258;50.376;8.742;2023-10-08T05:22:21;14.40;99.90
14349;DHT22;7258;50.376;8.742;2023-10-08T05:24:46;14.40;99.90
14349;DHT22;7258;50.376;8.742;2023-10-08T05:27:09;14.40;99.90
14349;DHT22;7258;50.376;8.742;2023-10-08T05:29:27;14.40;99.90
14349;DHT22;7258;50.376;8.742;2023-10-08T05:32:13;14.40;99.90
14349;DHT22;7258;50.376;8.742;2023-10-08T05:34:29;14.40;99.90
14349;DHT22;7258;50.376;8.742;2023-10-08T05:36:44;14.40;99.90
14349;DHT22;7258;50.376;8.742;2023-10-08T05:38:52;14.30;99.90
14349;DHT22;7258;50.376;8.742;2023-10-08T05:41:02;14.30;99.90
14349;DHT22;7258;50.376;8.742;2023-10-08T05:43:14;14.30;99.90
14349;DHT22;7258;50.376;8.742;2023-10-08T05:45:36;14.30;99.90
14349;DHT22;7258;50.376;8.742;2023-10-08T05:47:39;14.30;99.90
14349;DHT22;7258;50.376;8.742;2023-10-08T05:49:43;14.20;99.90
14349;DHT22;7258;50.376;8.742;2023-10-08T05:51:56;14.20;99.90
14349;DHT22;7258;50.376;8.742;2023-10-08T05:54:27;14.20;99.90
14349;DHT22;7258;50.376;8.742;2023-10-08T05:56:49;14.20;99.90
14349;DHT22;7258;50.376;8.742;2023-10-08T05:59:08;14.20;99.90
14349;DHT22;7258;50.376;8.742;2023-10-08T06:01:21;14.20;99.90
14349;DHT22;7258;50.376;8.742;2023-10-08T06:03:31;14.20;99.90
14349;DHT22;7258;50.376;8.742;2023-10-08T06:05:35;14.20;99.90
14349;DHT22;7258;50.376;8.742;2023-10-08T06:07:47;14.20;99.90
14349;DHT22;7258;50.376;8.742;2023-10-08T06:09:50;14.30;99.90
14349;DHT22;7258;50.376;8.742;2023-10-08T06:12:04;14.30;99.90
14349;DHT22;7258;50.376;8.742;2023-10-08T06:14:14;14.30;99.90
14349;DHT22;7258;50.376;8.742;2023-10-08T06:16:18;14.30;99.90
14349;DHT22;7258;50.376;8.742;2023-10-08T06:18:34;14.30;99.90
14349;DHT22;7258;50.376;8.742;2023-10-08T06:20:39;14.30;99.90
14349;DHT22;7258;50.376;8.742;2023-10-08T06:22:44;14.30;99.90
14349;DHT22;7258;50.376;8.742;2023-10-08T06:24:47;14.40;99.90
14349;DHT22;7258;50.376;8.742;2023-10-08T06:26:50;14.40;99.90
14349;DHT22;7258;50.376;8.742;2023-10-08T06:28:53;14.40;99.90
14349;DHT22;7258;50.376;8.742;2023-10-08T06:30:59;14.40;99.90
14349;DHT22;7258;50.376;8.742;2023-10-08T06:33:03;14.50;99.90
14349;DHT22;7258;50.376;8.742;2023-10-08T06:35:07;14.50;99.90
14349;DHT22;7258;50.376;8.742;2023-10-08T06:37:18;14.50;99.90
14349;DHT22;7258;50.376;8.742;2023-10-08T06:39:21;14.50;99.90
14349;DHT22;7258;50.376;8.742;2023-10-08T06:41:27;14.50;99.90
14349;DHT22;7258;50.376;8.742;2023-10-08T06:43:49;14.60;99.90
14349;DHT22;7258;50.376;8.742;2023-10-08T06:46:04;14.60;99.90
14349;DHT22;7258;50.376;8.742;2023-10-08T06:48:09;14.70;99.90
14349;DHT22;7258;50.376;8.742;2023-10-08T06:50:12;14.80;99.90
14349;DHT22;7258;50.376;8.742;2023-10-08T06:52:16;14.80;99.90
14349;DHT22;7258;50.376;8.742;2023-10-08T06:54:20;14.90;99.90
14349;DHT22;7258;50.376;8.742;2023-10-08T06:56:24;15.00;99.90
14349;DHT22;7258;50.376;8.742;2023-10-08T06:58:27;15.00;99.90
14349;DHT22;7258;50.376;8.742;2023-10-08T07:00:30;15.10;99.90
14349;DHT22;7258;50.376;8.742;2023-10-08T07:02:40;15.20;99.90
14349;DHT22;7258;50.376;8.742;2023-10-08T07:04:43;15.20;99.90
14349;DHT22;7258;50.376;8.742;2023-10-08T07:06:51;15.30;99.90
14349;DHT22;7258;50.376;8.742;2023-10-08T07:08:55;15.40;99.90
14349;DHT22;7258;50.376;8.742;2023-10-08T07:10:59;15.40;99.90
14349;DHT22;7258;50.376;8.742;2023-10-08T07:13:03;15.50;99.90
14349;DHT22;7258;50.376;8.742;2023-10-08T07:15:06;15.70;99.90
14349;DHT22;7258;50.376;8.742;2023-10-08T07:17:13;15.70;99.90
14349;DHT22;7258;50.376;8.742;2023-10-08T07:19:22;15.80;99.90
14349;DHT22;7258;50.376;8.742;2023-10-08T07:21:34;15.90;99.90
14349;DHT22;7258;50.376;8.742;2023-10-08T07:23:48;16.00;99.90
14349;DHT22;7258;50.376;8.742;2023-10-08T07:26:01;16.00;99.90
14349;DHT22;7258;50.376;8.742;2023-10-08T07:28:12;16.10;99.90
14349;DHT22;7258;50.376;8.742;2023-10-08T07:30:15;16.20;99.90
14349;DHT22;7258;50.376;8.742;2023-10-08T07:32:28;16.30;99.90
14349;DHT22;7258;50.376;8.742;2023-10-08T07:34:32;16.30;99.90
14349;DHT22;7258;50.376;8.742;2023-10-08T07:36:35;16.40;99.90
14349;DHT22;7258;50.376;8.742;2023-10-08T07:38:38;16.40;99.90
14349;DHT22;7258;50.376;8.742;2023-10-08T07:40:45;16.50;99.90
14349;DHT22;7258;50.376;8.742;2023-10-08T07:42:48;16.50;99.90
14349;DHT22;7258;50.376;8.742;2023-10-08T07:44:53;16.50;99.90
14349;DHT22;7258;50.376;8.742;2023-10-08T07:46:57;16.60;99.90
14349;DHT22;7258;50.376;8.742;2023-10-08T07:49:00;16.70;99.90
14349;DHT22;7258;50.376;8.742;2023-10-08T07:51:02;16.70;99.90
14349;DHT22;7258;50.376;8.742;2023-10-08T07:53:05;16.70;99.90
14349;DHT22;7258;50.376;8.742;2023-10-08T07:55:08;16.80;99.90
14349;DHT22;7258;50.376;8.742;2023-10-08T07:57:13;16.80;99.90
14349;DHT22;7258;50.376;8.742;2023-10-08T07:59:20;16.90;99.90
14349;DHT22;7258;50.376;8.742;2023-10-08T08:01:24;17.00;99.90
14349;DHT22;7258;50.376;8.742;2023-10-08T08:03:27;17.10;99.90
14349;DHT22;7258;50.376;8.742;2023-10-08T08:05:30;17.20;99.90
14349;DHT22;7258;50.376;8.742;2023-10-08T08:07:33;17.30;99.90
14349;DHT22;7258;50.376;8.742;2023-10-08T08:09:36;17.30;99.90
14349;DHT22;7258;50.376;8.742;2023-10-08T08:11:39;17.40;99.90
14349;DHT22;7258;50.376;8.742;2023-10-08T08:13:45;17.50;99.90
14349;DHT22;7258;50.376;8.742;2023-10-08T08:15:47;17.50;99.90
14349;DHT22;7258;50.376;8.742;2023-10-08T08:17:53;17.60;99.90
14349;DHT22;7258;50.376;8.742;2023-10-08T08:19:56;17.60;99.90
14349;DHT22;7258;50.376;8.742;2023-10-08T08:21:59;17.70;99.90
14349;DHT22;7258;50.376;8.742;2023-10-08T08:24:04;17.70;99.90
14349;DHT22;7258;50.376;8.742;2023-10-08T08:26:07;17.80;99.90
14349;DHT22;7258;50.376;8.742;2023-10-08T08:28:14;17.80;99.90
14349;DHT22;7258;50.376;8.742;2023-10-08T08:30:23;17.90;99.90
14349;DHT22;7258;50.376;8.742;2023-10-08T08:32:28;18.00;99.90
14349;DHT22;7258;50.376;8.742;2023-10-08T08:34:30;18.00;99.90
14349;DHT22;7258;50.376;8.742;2023-10-08T08:36:34;18.10;99.90
14349;DHT22;7258;50.376;8.742;2023-10-08T08:38:39;18.10;99.90
14349;DHT22;7258;50.376;8.742;2023-10-08T08:40:41;18.10;99.90
14349;DHT22;7258;50.376;8.742;2023-10-08T08:42:44;18.10;99.90
14349;DHT22;7258;50.376;8.742;2023-10-08T08:44:48;18.10;99.90
14349;DHT22;7258;50.376;8.742;2023-10-08T08:46:56;18.10;99.90
14349;DHT22;7258;50.376;8.742;2023-10-08T08:49:02;18.20;99.90
14349;DHT22;7258;50.376;8.742;2023-10-08T08:51:06;18.20;99.90
14349;DHT22;7258;50.376;8.742;2023-10-08T08:53:11;18.20;99.90
14349;DHT22;7258;50.376;8.742;2023-10-08T08:55:14;18.20;99.90
14349;DHT22;7258;50.376;8.742;2023-10-08T08:57:19;18.30;99.90
14349;DHT22;7258;50.376;8.742;2023-10-08T08:59:24;18.40;99.90
14349;DHT22;7258;50.376;8.742;2023-10-08T09:01:27;18.40;99.90
14349;DHT22;7258;50.376;8.742;2023-10-08T09:03:34;18.50;99.90
14349;DHT22;7258;50.376;8.742;2023-10-08T09:05:39;18.50;99.90
14349;DHT22;7258;50.376;8.742;2023-10-08T09:07:52;18.50;99.90
14349;DHT22;7258;50.376;8.742;2023-10-08T09:09:57;18.60;99.90
14349;DHT22;7258;50.376;8.742;2023-10-08T09:12:00;18.70;99.90
14349;DHT22;7258;50.376;8.742;2023-10-08T09:14:07;18.80;99.90
14349;DHT22;7258;50.376;8.742;2023-10-08T09:16:13;18.80;99.90
14349;DHT22;7258;50.376;8.742;2023-10-08T09:18:16;18.90;99.90
14349;DHT22;7258;50.376;8.742;2023-10-08T09:20:21;18.90;99.90
14349;DHT22;7258;50.376;8.742;2023-10-08T09:22:23;19.00;99.90
14349;DHT22;7258;50.376;8.742;2023-10-08T09:24:27;18.90;99.90
14349;DHT22;7258;50.376;8.742;2023-10-08T09:26:29;19.00;99.90
14349;DHT22;7258;50.376;8.742;2023-10-08T09:28:32;19.10;99.90
14349;DHT22;7258;50.376;8.742;2023-10-08T09:30:40;19.30;99.90
14349;DHT22;7258;50.376;8.742;2023-10-08T09:32:43;19.30;99.90
14349;DHT22;7258;50.376;8.742;2023-10-08T09:34:48;19.40;99.90
14349;DHT22;7258;50.376;8.742;2023-10-08T09:36:54;19.60;99.90
14349;DHT22;7258;50.376;8.742;2023-10-08T09:38:59;19.60;99.90
14349;DHT22;7258;50.376;8.742;2023-10-08T09:41:03;19.60;99.90
14349;DHT22;7258;50.376;8.742;2023-10-08T09:43:06;19.70;99.90
14349;DHT22;7258;50.376;8.742;2023-10-08T09:45:10;19.80;99.90
14349;DHT22;7258;50.376;8.742;2023-10-08T09:47:19;19.90;99.90
14349;DHT22;7258;50.376;8.742;2023-10-08T09:49:29;19.80;99.90
14349;DHT22;7258;50.376;8.742;2023-10-08T09:51:36;19.80;99.90
14349;DHT22;7258;50.376;8.742;2023-10-08T09:53:47;19.70;99.90
14349;DHT22;7258;50.376;8.742;2023-10-08T09:55:54;19.70;99.90
14349;DHT22;7258;50.376;8.742;2023-10-08T09:57:57;19.80;99.90
14349;DHT22;7258;50.376;8.742;2023-10-08T10:00:00;19.80;99.90
14349;DHT22;7258;50.376;8.742;2023-10-08T10:02:03;19.80;99.90
14349;DHT22;7258;50.376;8.742;2023-10-08T10:04:12;19.90;99.90
14349;DHT22;7258;50.376;8.742;2023-10-08T10:06:17;20.00;99.90
14349;DHT22;7258;50.376;8.742;2023-10-08T10:08:20;20.10;99.90
14349;DHT22;7258;50.376;8.742;2023-10-08T10:10:29;20.20;99.90
14349;DHT22;7258;50.376;8.742;2023-10-08T10:12:33;20.40;99.90
14349;DHT22;7258;50.376;8.742;2023-10-08T10:14:44;20.50;99.90
14349;DHT22;7258;50.376;8.742;2023-10-08T10:16:48;20.60;99.90
14349;DHT22;7258;50.376;8.742;2023-10-08T10:18:55;20.60;99.90
14349;DHT22;7258;50.376;8.742;2023-10-08T10:21:30;20.80;99.90
14349;DHT22;7258;50.376;8.742;2023-10-08T10:23:35;20.90;99.90
14349;DHT22;7258;50.376;8.742;2023-10-08T10:25:41;20.90;99.90
14349;DHT22;7258;50.376;8.742;2023-10-08T10:28:21;21.00;99.90
14349;DHT22;7258;50.376;8.742;2023-10-08T10:30:25;21.20;99.90
14349;DHT22;7258;50.376;8.742;2023-10-08T10:32:29;21.10;99.90
14349;DHT22;7258;50.376;8.742;2023-10-08T10:34:32;21.00;99.90
14349;DHT22;7258;50.376;8.742;2023-10-08T10:36:37;21.00;99.90
14349;DHT22;7258;50.376;8.742;2023-10-08T10:38:41;21.00;99.90
14349;DHT22;7258;50.376;8.742;2023-10-08T10:40:48;21.00;99.90
14349;DHT22;7258;50.376;8.742;2023-10-08T10:42:58;21.10;99.90
14349;DHT22;7258;50.376;8.742;2023-10-08T10:45:04;21.20;99.90
14349;DHT22;7258;50.376;8.742;2023-10-08T10:47:11;21.30;99.90
14349;DHT22;7258;50.376;8.742;2023-10-08T10:49:28;21.50;99.90
14349;DHT22;7258;50.376;8.742;2023-10-08T10:51:33;21.60;99.90
14349;DHT22;7258;50.376;8.742;2023-10-08T10:53:39;21.70;99.90
14349;DHT22;7258;50.376;8.742;2023-10-08T10:55:51;21.70;99.90
14349;DHT22;7258;50.376;8.742;2023-10-08T10:58:01;21.60;99.90
14349;DHT22;7258;50.376;8.742;2023-10-08T11:00:13;21.30;99.90
14349;DHT22;7258;50.376;8.742;2023-10-08T11:02:40;21.20;99.90
14349;DHT22;7258;50.376;8.742;2023-10-08T11:04:44;21.10;99.90
14349;DHT22;7258;50.376;8.742;2023-10-08T11:06:50;21.00;99.90
14349;DHT22;7258;50.376;8.742;2023-10-08T11:08:58;20.90;99.90
14349;DHT22;7258;50.376;8.742;2023-10-08T11:11:02;20.90;99.90
14349;DHT22;7258;50.376;8.742;2023-10-08T11:13:09;21.10;99.90
14349;DHT22;7258;50.376;8.742;2023-10-08T11:15:16;21.30;99.90
14349;DHT22;7258;50.376;8.742;2023-10-08T11:17:23;21.60;99.90
14349;DHT22;7258;50.376;8.742;2023-10-08T11:19:27;21.70;99.90
14349;DHT22;7258;50.376;8.742;2023-10-08T11:21:30;21.80;99.90
14349;DHT22;7258;50.376;8.742;2023-10-08T11:23:37;21.70;99.90
14349;DHT22;7258;50.376;8.742;2023-10-08T11:25:52;21.60;99.90
14349;DHT22;7258;50.376;8.742;2023-10-08T11:27:56;21.40;99.90
14349;DHT22;7258;50.376;8.742;2023-10-08T11:30:05;21.30;99.90
14349;DHT22;7258;50.376;8.742;2023-10-08T11:32:15;21.20;99.90
14349;DHT22;7258;50.376;8.742;2023-10-08T11:34:19;21.10;99.90
14349;DHT22;7258;50.376;8.742;2023-10-08T11:36:27;21.10;99.90
14349;DHT22;7258;50.376;8.742;2023-10-08T11:38:38;21.00;99.90
14349;DHT22;7258;50.376;8.742;2023-10-08T11:40:40;20.90;99.90
14349;DHT22;7258;50.376;8.742;2023-10-08T11:42:50;20.80;99.90
14349;DHT22;7258;50.376;8.742;2023-10-08T11:44:54;20.70;99.90
14349;DHT22;7258;50.376;8.742;2023-10-08T11:47:01;20.60;99.90
14349;DHT22;7258;50.376;8.742;2023-10-08T11:49:12;20.60;99.90
14349;DHT22;7258;50.376;8.742;2023-10-08T11:51:19;20.60;99.90
14349;DHT22;7258;50.376;8.742;2023-10-08T11:53:26;20.70;99.90
14349;DHT22;7258;50.376;8.742;2023-10-08T11:55:31;20.80;99.90
14349;DHT22;7258;50.376;8.742;2023-10-08T11:57:37;20.90;99.90
14349;DHT22;7258;50.376;8.742;2023-10-08T11:59:46;21.00;99.90
14349;DHT22;7258;50.376;8.742;2023-10-08T12:01:51;21.00;99.90
14349;DHT22;7258;50.376;8.742;2023-10-08T12:03:54;20.90;99.90
14349;DHT22;7258;50.376;8.742;2023-10-08T12:06:01;20.70;99.90
14349;DHT22;7258;50.376;8.742;2023-10-08T12:08:07;20.70;99.90
14349;DHT22;7258;50.376;8.742;2023-10-08T12:10:10;20.60;99.90
14349;DHT22;7258;50.376;8.742;2023-10-08T12:12:13;20.60;99.90
14349;DHT22;7258;50.376;8.742;2023-10-08T12:14:17;20.60;99.90
14349;DHT22;7258;50.376;8.742;2023-10-08T12:16:20;20.60;99.90
14349;DHT22;7258;50.376;8.742;2023-10-08T12:18:25;20.70;99.90
14349;DHT22;7258;50.376;8.742;2023-10-08T12:20:31;20.80;99.90
14349;DHT22;7258;50.376;8.742;2023-10-08T12:22:36;20.90;99.90
14349;DHT22;7258;50.376;8.742;2023-10-08T12:24:38;21.00;99.90
14349;DHT22;7258;50.376;8.742;2023-10-08T12:26:41;20.90;99.90
14349;DHT22;7258;50.376;8.742;2023-10-08T12:28:48;20.90;99.90
14349;DHT22;7258;50.376;8.742;2023-10-08T12:30:51;20.80;99.90
14349;DHT22;7258;50.376;8.742;2023-10-08T12:32:54;20.90;99.90
14349;DHT22;7258;50.376;8.742;2023-10-08T12:35:00;20.90;99.90
14349;DHT22;7258;50.376;8.742;2023-10-08T12:37:03;20.70;99.90
14349;DHT22;7258;50.376;8.742;2023-10-08T12:39:06;20.70;99.90
14349;DHT22;7258;50.376;8.742;2023-10-08T12:41:16;20.70;99.90
14349;DHT22;7258;50.376;8.742;2023-10-08T12:43:20;20.60;99.90
14349;DHT22;7258;50.376;8.742;2023-10-08T12:45:23;20.70;99.90
14349;DHT22;7258;50.376;8.742;2023-10-08T12:47:28;20.80;99.90
14349;DHT22;7258;50.376;8.742;2023-10-08T12:49:31;20.50;99.90
14349;DHT22;7258;50.376;8.742;2023-10-08T12:51:36;20.40;99.90
14349;DHT22;7258;50.376;8.742;2023-10-08T12:53:42;20.30;99.90
14349;DHT22;7258;50.376;8.742;2023-10-08T12:55:52;20.30;99.90
14349;DHT22;7258;50.376;8.742;2023-10-08T12:57:55;20.20;99.90
14349;DHT22;7258;50.376;8.742;2023-10-08T13:00:06;20.10;99.90
14349;DHT22;7258;50.376;8.742;2023-10-08T13:02:10;20.10;99.90
14349;DHT22;7258;50.376;8.742;2023-10-08T13:04:13;20.00;99.90
14349;DHT22;7258;50.376;8.742;2023-10-08T13:06:23;19.90;99.90
14349;DHT22;7258;50.376;8.742;2023-10-08T13:08:32;19.90;99.90
14349;DHT22;7258;50.376;8.742;2023-10-08T13:10:35;19.90;99.90
14349;DHT22;7258;50.376;8.742;2023-10-08T13:12:42;19.80;99.90
14349;DHT22;7258;50.376;8.742;2023-10-08T13:14:45;19.80;99.90
14349;DHT22;7258;50.376;8.742;2023-10-08T13:16:49;19.70;99.90
14349;DHT22;7258;50.376;8.742;2023-10-08T13:18:55;19.60;99.90
14349;DHT22;7258;50.376;8.742;2023-10-08T13:20:59;19.60;99.90
14349;DHT22;7258;50.376;8.742;2023-10-08T13:23:04;19.60;99.90
14349;DHT22;7258;50.376;8.742;2023-10-08T13:25:09;19.50;99.90
14349;DHT22;7258;50.376;8.742;2023-10-08T13:27:13;19.50;99.90
14349;DHT22;7258;50.376;8.742;2023-10-08T13:29:18;19.30;99.90
14349;DHT22;7258;50.376;8.742;2023-10-08T13:31:21;19.20;99.90
14349;DHT22;7258;50.376;8.742;2023-10-08T13:33:23;19.30;99.90